Time;durP1;ratioP1;P1;durP2;ratioP2;P2;SDS_P1;SDS_P2;PMS_P1;PMS_P2;Temp;Humidity;BMP_temperature;BMP_pressure;BME280_temperature;BME280_humidity;BME280_pressure;Samples;Min_cycle;Max_cycle;Signal;HPM_P1;HPM_P2
2023/12/13 00:00:05;;;;;;;16.30;8.38;;;8.60;99.90;;;;;;4992261;28;20027;-76
2023/12/13 00:02:30;;;;;;;18.95;7.60;;;8.60;99.90;;;;;;4991432;28;20133;-76
2023/12/13 00:04:56;;;;;;;19.48;7.85;;;8.60;99.90;;;;;;4991235;28;20112;-77
2023/12/13 00:07:21;;;;;;;14.65;8.45;;;8.50;99.90;;;;;;4991730;28;20385;-77
2023/12/13 00:09:47;;;;;;;19.83;9.15;;;8.50;99.90;;;;;;4990422;28;20034;-77
2023/12/13 00:12:12;;;;;;;16.20;8.48;;;8.50;99.90;;;;;;4984872;28;20034;-77
2023/12/13 00:14:38;;;;;;;17.52;8.45;;;8.40;99.90;;;;;;5003155;28;20022;-76
2023/12/13 00:17:04;;;;;;;20.13;9.73;;;8.40;99.90;;;;;;4994140;28;20049;-76
2023/12/13 00:19:29;;;;;;;19.13;10.15;;;8.40;99.90;;;;;;4998389;28;20030;-76
2023/12/13 00:21:55;;;;;;;21.60;10.48;;;8.40;99.90;;;;;;5000197;28;20030;-76
2023/12/13 00:24:20;;;;;;;21.00;10.77;;;8.40;99.90;;;;;;5001356;28;20433;-76
2023/12/13 00:26:48;;;;;;;20.17;10.93;;;8.40;99.90;;;;;;4999035;28;20074;-76
2023/12/13 00:29:14;;;;;;;21.17;12.10;;;8.50;99.90;;;;;;4998694;28;20466;-76
2023/12/13 00:31:40;;;;;;;22.42;12.35;;;8.50;99.90;;;;;;5002465;28;20033;-76
2023/12/13 00:34:07;;;;;;;23.50;12.15;;;8.40;99.90;;;;;;4998522;28;20030;-76
2023/12/13 00:36:32;;;;;;;24.08;13.45;;;8.40;99.90;;;;;;4996696;28;20101;-76
2023/12/13 00:38:58;;;;;;;24.77;13.32;;;8.40;99.90;;;;;;4994389;28;20126;-76
2023/12/13 00:41:24;;;;;;;23.95;13.65;;;8.50;99.90;;;;;;4992334;28;20027;-75
2023/12/13 00:43:49;;;;;;;24.52;13.45;;;8.50;99.90;;;;;;4988083;28;20114;-76
2023/12/13 00:46:22;;;;;;;23.45;13.30;;;8.50;99.90;;;;;;4992243;28;20101;-77
2023/12/13 00:48:49;;;;;;;24.23;14.05;;;8.60;99.90;;;;;;4992689;28;20041;-76
2023/12/13 00:51:19;;;;;;;21.67;13.05;;;8.60;99.90;;;;;;4992986;28;20113;-77
2023/12/13 00:53:45;;;;;;;19.33;11.15;;;8.60;99.90;;;;;;4992737;28;20030;-76
2023/12/13 00:56:10;;;;;;;24.08;12.07;;;8.60;99.90;;;;;;4992065;28;20041;-77
2023/12/13 00:58:36;;;;;;;23.38;12.15;;;8.60;99.90;;;;;;4993005;28;20113;-75
2023/12/13 01:01:02;;;;;;;22.85;12.15;;;8.60;99.90;;;;;;4981575;28;20046;-75
2023/12/13 01:03:27;;;;;;;24.45;13.23;;;8.60;99.90;;;;;;4992282;28;20101;-76
2023/12/13 01:05:53;;;;;;;20.90;12.05;;;8.70;99.90;;;;;;4992096;28;20057;-75
2023/12/13 01:08:18;;;;;;;20.70;12.07;;;8.70;99.90;;;;;;4991975;28;20054;-76
2023/12/13 01:10:44;;;;;;;22.42;12.48;;;8.70;99.90;;;;;;4992729;28;20027;-76
2023/12/13 01:13:09;;;;;;;23.63;12.45;;;8.60;99.90;;;;;;4990626;28;20098;-76
2023/12/13 01:15:36;;;;;;;22.83;12.75;;;8.60;99.90;;;;;;4992656;28;20426;-76
2023/12/13 01:18:02;;;;;;;23.42;13.70;;;8.60;99.90;;;;;;4992777;28;20058;-76
2023/12/13 01:20:28;;;;;;;22.00;12.93;;;8.70;99.90;;;;;;4992262;28;20049;-77
2023/12/13 01:22:54;;;;;;;21.25;12.88;;;8.70;99.90;;;;;;4975399;28;20033;-77
2023/12/13 01:25:19;;;;;;;22.10;12.98;;;8.60;99.90;;;;;;4993245;28;20054;-76
2023/12/13 01:27:45;;;;;;;24.25;13.80;;;8.60;99.90;;;;;;4991777;28;20474;-77
2023/12/13 01:30:10;;;;;;;25.73;14.38;;;8.60;99.90;;;;;;4992157;28;20474;-77
2023/12/13 01:32:36;;;;;;;23.15;14.25;;;8.60;99.90;;;;;;4993166;28;20525;-77
2023/12/13 01:35:02;;;;;;;29.52;15.35;;;8.60;99.90;;;;;;4991267;28;20382;-76
2023/12/13 01:37:28;;;;;;;24.05;14.70;;;8.70;99.90;;;;;;4992412;28;20026;-76
2023/12/13 01:39:56;;;;;;;27.63;15.95;;;8.70;99.90;;;;;;4991987;28;20026;-76
2023/12/13 01:42:25;;;;;;;32.53;15.90;;;8.70;99.90;;;;;;4989835;28;20042;-76
2023/12/13 01:44:51;;;;;;;26.35;15.60;;;8.70;99.90;;;;;;4992631;28;20034;-76
2023/12/13 01:47:17;;;;;;;27.60;16.60;;;8.80;99.90;;;;;;4993089;28;20054;-76
2023/12/13 01:49:47;;;;;;;25.17;16.27;;;8.80;99.90;;;;;;4992649;28;20165;-75
2023/12/13 01:52:15;;;;;;;29.90;17.25;;;8.80;99.90;;;;;;4991899;28;20112;-76
2023/12/13 01:54:41;;;;;;;33.78;18.40;;;8.80;99.90;;;;;;4992414;28;20038;-76
2023/12/13 01:57:09;;;;;;;30.40;18.10;;;8.90;99.90;;;;;;4991930;28;20378;-76
2023/12/13 01:59:36;;;;;;;27.45;17.80;;;8.90;99.90;;;;;;4996451;28;20033;-77
2023/12/13 02:02:01;;;;;;;28.67;18.63;;;8.90;99.90;;;;;;4996114;28;20045;-77
2023/12/13 02:04:28;;;;;;;32.05;19.13;;;8.90;99.90;;;;;;4995336;28;20038;-77
2023/12/13 02:06:53;;;;;;;29.83;18.15;;;9.00;99.90;;;;;;4995645;28;20026;-77
2023/12/13 02:09:19;;;;;;;30.85;18.10;;;9.00;99.90;;;;;;4995696;28;20022;-77
2023/12/13 02:11:46;;;;;;;32.40;18.77;;;9.00;99.90;;;;;;4995464;28;20117;-77
2023/12/13 02:14:12;;;;;;;33.88;18.90;;;9.00;99.90;;;;;;4993684;28;20034;-77
2023/12/13 02:16:38;;;;;;;33.90;19.52;;;9.00;99.90;;;;;;4993865;28;20081;-77
2023/12/13 02:19:04;;;;;;;33.78;20.00;;;9.00;99.90;;;;;;4995224;28;20105;-77
2023/12/13 02:21:30;;;;;;;35.85;20.25;;;9.00;99.90;;;;;;4995622;28;20026;-77
2023/12/13 02:24:00;;;;;;;35.08;19.88;;;9.00;99.90;;;;;;4995147;28;20038;-78
2023/12/13 02:26:25;;;;;;;32.15;18.80;;;9.00;99.90;;;;;;4995739;28;20058;-77
2023/12/13 02:28:52;;;;;;;34.55;19.85;;;9.00;99.90;;;;;;4995772;28;20065;-77
2023/12/13 02:31:18;;;;;;;31.00;19.30;;;9.00;99.90;;;;;;4994211;28;20030;-77
2023/12/13 02:33:44;;;;;;;32.55;19.90;;;9.00;99.90;;;;;;4992686;28;20395;-76
2023/12/13 02:36:10;;;;;;;36.15;21.42;;;9.00;99.90;;;;;;4995645;28;20034;-76
2023/12/13 02:38:35;;;;;;;43.03;21.90;;;9.00;99.90;;;;;;4995548;28;20030;-77
2023/12/13 02:41:01;;;;;;;35.42;21.23;;;9.00;99.90;;;;;;4995626;28;20050;-77
2023/12/13 02:43:30;;;;;;;37.22;21.40;;;9.00;99.90;;;;;;4994554;28;20042;-78
2023/12/13 02:45:56;;;;;;;36.90;21.27;;;9.00;99.90;;;;;;4994775;28;20030;-76
2023/12/13 02:48:21;;;;;;;35.17;22.00;;;9.00;99.90;;;;;;4977549;28;20039;-77
2023/12/13 02:50:48;;;;;;;36.72;21.80;;;9.00;99.90;;;;;;4995315;28;20030;-77
2023/12/13 02:53:14;;;;;;;43.85;22.65;;;9.00;99.90;;;;;;4993668;28;20390;-77
2023/12/13 02:55:39;;;;;;;35.58;22.52;;;9.00;99.90;;;;;;4994485;28;20466;-77
2023/12/13 02:58:06;;;;;;;36.80;22.42;;;9.00;99.90;;;;;;4995313;28;20023;-77
2023/12/13 03:00:31;;;;;;;37.00;22.65;;;9.00;99.90;;;;;;4995067;28;20478;-77
2023/12/13 03:02:57;;;;;;;41.22;23.35;;;9.00;99.90;;;;;;4993122;28;20073;-77
2023/12/13 03:05:23;;;;;;;40.35;23.10;;;9.00;99.90;;;;;;4975188;28;20030;-75
2023/12/13 03:07:49;;;;;;;39.67;22.73;;;9.00;99.90;;;;;;4992820;28;20038;-76
2023/12/13 03:10:15;;;;;;;35.22;22.67;;;9.00;99.90;;;;;;4994857;28;20526;-79
2023/12/13 03:12:41;;;;;;;41.70;23.02;;;9.00;99.90;;;;;;4977457;28;20117;-77
2023/12/13 03:15:07;;;;;;;40.90;23.30;;;9.00;99.90;;;;;;4993982;28;20062;-76
2023/12/13 03:17:33;;;;;;;43.72;22.88;;;9.00;99.90;;;;;;4994230;28;20054;-76
2023/12/13 03:19:59;;;;;;;36.40;22.67;;;8.90;99.90;;;;;;4994694;28;20042;-79
2023/12/13 03:22:25;;;;;;;40.92;23.95;;;9.00;99.90;;;;;;4977289;28;20026;-76
2023/12/13 03:24:56;;;;;;;40.92;24.33;;;9.00;99.90;;;;;;4992550;28;20022;-76
2023/12/13 03:27:22;;;;;;;;;;;9.00;99.90;;;;;;4994028;28;20038;-77
2023/12/13 03:29:48;;;;;;;32.88;20.80;;;9.00;99.90;;;;;;4976519;28;19917;-77
2023/12/13 03:32:13;;;;;;;36.72;22.48;;;9.00;99.90;;;;;;4994177;28;20106;-78
2023/12/13 03:34:39;;;;;;;35.22;21.67;;;9.00;99.90;;;;;;4994397;28;20030;-78
2023/12/13 03:37:06;;;;;;;36.47;21.00;;;9.00;99.90;;;;;;4994289;28;20442;-78
2023/12/13 03:39:32;;;;;;;33.95;20.55;;;9.00;99.90;;;;;;4993704;28;20037;-76
2023/12/13 03:41:58;;;;;;;36.33;21.38;;;9.00;99.90;;;;;;4992930;28;20034;-77
2023/12/13 03:44:24;;;;;;;33.20;20.63;;;9.10;99.90;;;;;;4993169;28;20034;-77
2023/12/13 03:46:50;;;;;;;32.20;21.02;;;9.10;99.90;;;;;;4994046;28;20100;-78
2023/12/13 03:49:16;;;;;;;36.28;20.25;;;9.10;99.90;;;;;;4994116;28;20023;-77
2023/12/13 03:51:46;;;;;;;34.63;20.35;;;9.10;99.90;;;;;;4993316;28;20041;-77
2023/12/13 03:54:12;;;;;;;32.90;20.15;;;9.20;99.90;;;;;;4990263;28;20041;-77
2023/12/13 03:56:37;;;;;;;33.92;19.88;;;9.20;99.90;;;;;;4992052;28;20027;-77
2023/12/13 03:59:03;;;;;;;34.03;19.20;;;9.20;99.90;;;;;;4993888;28;20109;-77
2023/12/13 04:01:28;;;;;;;37.63;21.45;;;9.30;99.90;;;;;;4992436;28;20109;-77
2023/12/13 04:03:54;;;;;;;39.40;21.38;;;9.30;99.90;;;;;;4990115;28;20061;-77
2023/12/13 04:06:19;;;;;;;36.83;20.38;;;9.30;99.90;;;;;;4993657;28;20062;-77
2023/12/13 04:08:45;;;;;;;35.10;21.85;;;9.20;99.90;;;;;;4991222;28;20117;-77
2023/12/13 04:11:11;;;;;;;38.17;21.98;;;9.20;99.90;;;;;;4993795;28;20038;-77
2023/12/13 04:13:36;;;;;;;34.92;21.20;;;9.20;99.90;;;;;;4992997;28;20030;-77
2023/12/13 04:16:02;;;;;;;42.10;22.83;;;9.20;99.90;;;;;;4993721;28;20030;-77
2023/12/13 04:18:27;;;;;;;38.72;23.08;;;9.20;99.90;;;;;;4993197;28;20050;-77
2023/12/13 04:20:53;;;;;;;35.70;22.50;;;9.20;99.90;;;;;;4992874;28;20049;-77
2023/12/13 04:23:18;;;;;;;35.78;22.48;;;9.20;99.90;;;;;;4993510;28;20655;-77
2023/12/13 04:25:44;;;;;;;38.67;23.33;;;9.20;99.90;;;;;;4991130;28;20081;-77
2023/12/13 04:28:10;;;;;;;40.75;24.33;;;9.20;99.90;;;;;;4993267;28;20026;-77
2023/12/13 04:30:35;;;;;;;37.63;24.17;;;9.20;99.90;;;;;;4993526;28;20026;-77
2023/12/13 04:33:01;;;;;;;41.90;24.75;;;9.20;99.90;;;;;;4993755;28;20415;-77
2023/12/13 04:35:26;;;;;;;36.97;23.58;;;9.10;99.90;;;;;;4993425;28;20462;-77
2023/12/13 04:37:52;;;;;;;39.10;24.00;;;9.10;99.90;;;;;;4992123;28;20061;-76
2023/12/13 04:40:17;;;;;;;37.83;24.27;;;9.20;99.90;;;;;;4992853;28;20077;-77
2023/12/13 04:42:43;;;;;;;43.80;25.65;;;9.10;99.90;;;;;;4992393;28;20382;-77
2023/12/13 04:45:09;;;;;;;39.25;24.50;;;9.10;99.90;;;;;;4991598;28;20030;-77
2023/12/13 04:47:34;;;;;;;37.13;23.98;;;9.20;99.90;;;;;;4993507;28;20494;-76
2023/12/13 04:50:00;;;;;;;40.25;25.27;;;9.20;99.90;;;;;;4991861;28;20031;-77
2023/12/13 04:52:25;;;;;;;40.22;24.88;;;9.20;99.90;;;;;;4992824;28;20025;-76
2023/12/13 04:54:51;;;;;;;40.17;24.52;;;9.20;99.90;;;;;;4992069;28;20413;-77
2023/12/13 04:57:16;;;;;;;41.67;28.00;;;9.20;99.90;;;;;;4989686;28;20081;-77
2023/12/13 04:59:42;;;;;;;50.67;28.55;;;9.20;99.90;;;;;;4990830;28;20026;-76
2023/12/13 05:02:07;;;;;;;42.05;25.92;;;9.20;99.90;;;;;;4991288;28;20129;-76
2023/12/13 05:04:33;;;;;;;40.45;25.80;;;9.10;99.90;;;;;;4995392;28;20108;-76
2023/12/13 05:06:59;;;;;;;44.03;26.38;;;9.10;99.90;;;;;;4993236;28;20080;-78
2023/12/13 05:09:24;;;;;;;42.03;27.52;;;9.00;99.90;;;;;;4989509;28;20014;-76
2023/12/13 05:11:50;;;;;;;43.92;26.98;;;9.00;99.90;;;;;;4991358;28;20049;-76
2023/12/13 05:14:15;;;;;;;46.30;29.40;;;9.00;99.90;;;;;;4991257;28;20038;-75
2023/12/13 05:16:41;;;;;;;44.38;27.35;;;9.00;99.90;;;;;;4993371;28;20039;-76
2023/12/13 05:19:06;;;;;;;51.38;29.95;;;8.90;99.90;;;;;;4990742;28;20060;-77
2023/12/13 05:21:32;;;;;;;44.38;27.63;;;8.90;99.90;;;;;;5002002;28;20022;-75
2023/12/13 05:23:58;;;;;;;44.30;27.98;;;9.00;99.90;;;;;;5000785;28;20049;-76
2023/12/13 05:26:23;;;;;;;51.25;31.30;;;9.00;99.90;;;;;;5001253;28;20098;-76
2023/12/13 05:28:49;;;;;;;47.42;30.20;;;9.00;99.90;;;;;;4998027;28;20040;-76
2023/12/13 05:31:22;;;;;;;48.92;30.88;;;8.90;99.90;;;;;;5001817;28;20048;-76
2023/12/13 05:33:48;;;;;;;51.35;32.10;;;9.00;99.90;;;;;;5000527;28;20039;-76
2023/12/13 05:36:14;;;;;;;48.00;32.58;;;9.00;99.90;;;;;;5001386;28;20377;-77
2023/12/13 05:38:41;;;;;;;49.58;32.92;;;9.00;99.90;;;;;;5005322;28;20462;-77
2023/12/13 05:41:07;;;;;;;57.45;37.10;;;9.00;99.90;;;;;;5004491;28;20053;-76
2023/12/13 05:43:35;;;;;;;56.45;35.88;;;9.00;99.90;;;;;;5004285;28;20447;-76
2023/12/13 05:46:01;;;;;;;50.33;33.33;;;9.00;99.90;;;;;;5007013;28;20060;-76
2023/12/13 05:48:26;;;;;;;53.28;35.88;;;9.00;99.90;;;;;;5004237;28;20026;-77
2023/12/13 05:50:52;;;;;;;56.75;36.33;;;9.00;99.90;;;;;;5005048;28;20029;-76
2023/12/13 05:53:18;;;;;;;51.90;36.15;;;9.00;99.90;;;;;;5006415;28;20026;-76
2023/12/13 05:55:43;;;;;;;57.05;36.75;;;9.00;99.90;;;;;;5005467;28;20026;-76
2023/12/13 05:58:09;;;;;;;55.28;35.25;;;9.10;99.90;;;;;;5002242;28;20471;-76
2023/12/13 06:00:35;;;;;;;66.13;37.58;;;9.10;99.90;;;;;;5006470;28;20033;-77
2023/12/13 06:03:00;;;;;;;53.55;36.47;;;9.20;99.90;;;;;;5002745;28;20072;-75
2023/12/13 06:05:26;;;;;;;55.15;37.88;;;9.20;99.90;;;;;;5004199;28;20598;-77
2023/12/13 06:07:52;;;;;;;53.75;35.80;;;9.20;99.90;;;;;;5003864;28;20467;-78
2023/12/13 06:10:17;;;;;;;54.70;36.55;;;9.20;99.90;;;;;;4999662;28;20497;-75
2023/12/13 06:12:43;;;;;;;58.80;38.25;;;9.10;99.90;;;;;;5005556;28;20032;-75
2023/12/13 06:15:09;;;;;;;57.28;39.97;;;9.10;99.90;;;;;;5003646;28;20097;-75
2023/12/13 06:17:35;;;;;;;60.08;41.70;;;9.10;99.90;;;;;;5003747;28;20054;-75
2023/12/13 06:20:00;;;;;;;62.30;45.03;;;9.10;99.90;;;;;;5003487;28;20183;-77
2023/12/13 06:22:26;;;;;;;66.50;46.60;;;9.10;99.90;;;;;;5003153;28;20030;-75
2023/12/13 06:24:52;;;;;;;64.13;45.85;;;9.10;99.90;;;;;;5003985;28;20034;-75
2023/12/13 06:27:17;;;;;;;71.70;46.63;;;9.10;99.90;;;;;;5003199;28;20022;-76
2023/12/13 06:29:43;;;;;;;65.22;45.20;;;9.20;99.90;;;;;;5003788;28;20116;-76
2023/12/13 06:32:09;;;;;;;65.32;45.80;;;9.20;99.90;;;;;;4999384;28;20026;-74
2023/12/13 06:34:35;;;;;;;70.65;45.45;;;9.10;99.90;;;;;;5001079;28;20030;-75
2023/12/13 06:37:00;;;;;;;75.97;47.92;;;9.10;99.90;;;;;;5004316;28;20381;-75
2023/12/13 06:39:26;;;;;;;65.10;45.90;;;9.10;99.90;;;;;;5002565;28;20459;-78
2023/12/13 06:41:51;;;;;;;76.47;52.90;;;9.10;99.90;;;;;;5001420;28;20030;-75
2023/12/13 06:44:17;;;;;;;67.45;45.40;;;9.10;99.90;;;;;;5003164;28;20030;-76
2023/12/13 06:46:42;;;;;;;69.03;47.28;;;9.20;99.90;;;;;;5001209;28;20072;-75
2023/12/13 06:49:09;;;;;;;65.97;46.63;;;9.30;99.90;;;;;;5003685;28;20018;-76
2023/12/13 06:51:35;;;;;;;69.15;46.65;;;9.30;99.90;;;;;;5001206;28;20398;-74
2023/12/13 06:54:00;;;;;;;65.85;45.65;;;9.40;99.90;;;;;;5004088;28;20022;-74
2023/12/13 06:56:26;;;;;;;68.03;44.78;;;9.40;99.90;;;;;;5002186;28;20037;-75
2023/12/13 06:58:52;;;;;;;69.72;46.05;;;9.40;99.90;;;;;;5000633;28;20076;-76
2023/12/13 07:01:17;;;;;;;66.53;45.67;;;9.40;99.90;;;;;;5004091;28;20026;-75
2023/12/13 07:03:43;;;;;;;63.60;43.20;;;9.40;99.90;;;;;;5001339;28;20037;-75
2023/12/13 07:06:08;;;;;;;63.78;45.45;;;9.40;99.90;;;;;;5003175;28;20026;-75
2023/12/13 07:08:34;;;;;;;73.05;47.22;;;9.50;99.90;;;;;;4998270;28;20022;-75
2023/12/13 07:11:03;;;;;;;61.63;41.78;;;9.50;99.90;;;;;;4998691;28;20038;-76
2023/12/13 07:13:29;;;;;;;58.15;38.95;;;9.50;99.90;;;;;;4981072;28;20070;-75
2023/12/13 07:15:55;;;;;;;55.53;37.45;;;9.50;99.90;;;;;;5001546;28;20076;-76
2023/12/13 07:18:21;;;;;;;49.92;33.42;;;9.40;99.90;;;;;;5002500;28;20054;-75
2023/12/13 07:20:47;;;;;;;31.08;20.60;;;9.40;99.90;;;;;;5002061;28;20133;-75
2023/12/13 07:23:12;;;;;;;35.45;24.92;;;9.40;99.90;;;;;;5000768;28;20117;-77
2023/12/13 07:25:39;;;;;;;37.22;25.20;;;9.40;99.90;;;;;;5000990;28;20033;-76
2023/12/13 07:28:04;;;;;;;39.78;25.40;;;9.40;99.90;;;;;;5002966;28;20125;-77
2023/12/13 07:30:30;;;;;;;33.50;22.05;;;9.40;99.90;;;;;;5002209;28;20509;-77
2023/12/13 07:32:55;;;;;;;33.10;20.80;;;9.30;99.90;;;;;;5002698;28;20034;-76
2023/12/13 07:35:22;;;;;;;28.42;19.27;;;9.30;99.90;;;;;;4993667;28;20105;-76
2023/12/13 07:37:48;;;;;;;30.92;19.98;;;9.30;99.90;;;;;;4993669;28;20030;-76
2023/12/13 07:40:14;;;;;;;30.27;19.92;;;9.20;99.90;;;;;;4992212;28;20084;-77
2023/12/13 07:42:41;;;;;;;34.83;22.73;;;9.20;99.90;;;;;;4999702;28;20042;-76
2023/12/13 07:45:10;;;;;;;21.88;12.93;;;9.20;99.90;;;;;;4996201;28;20035;-76
2023/12/13 07:47:35;;;;;;;27.77;17.38;;;9.20;99.90;;;;;;4994659;28;20394;-76
2023/12/13 07:50:03;;;;;;;32.92;20.00;;;9.20;99.90;;;;;;4992835;28;20026;-76
2023/12/13 07:52:28;;;;;;;30.17;18.67;;;9.20;99.90;;;;;;4997188;28;20466;-76
2023/12/13 07:54:55;;;;;;;23.02;14.65;;;9.10;99.90;;;;;;4993306;28;20037;-76
2023/12/13 07:57:21;;;;;;;28.23;18.02;;;9.10;99.90;;;;;;4993402;28;20030;-77
2023/12/13 07:59:46;;;;;;;27.17;16.58;;;9.00;99.90;;;;;;5001065;28;20022;-77
2023/12/13 08:02:12;;;;;;;27.63;17.77;;;9.10;99.90;;;;;;4976842;28;20118;-77
2023/12/13 08:04:40;;;;;;;26.35;17.45;;;9.00;99.90;;;;;;4983922;28;20018;-76
2023/12/13 08:07:06;;;;;;;31.95;20.33;;;9.10;99.90;;;;;;4994227;28;20118;-76
2023/12/13 08:09:31;;;;;;;54.88;28.80;;;9.10;99.90;;;;;;4992936;28;20117;-78
2023/12/13 08:11:58;;;;;;;220.13;45.58;;;9.20;99.90;;;;;;5001969;28;20080;-76
2023/12/13 08:14:30;;;;;;;76.40;28.30;;;9.20;99.90;;;;;;4996313;28;20100;-79
2023/12/13 08:16:57;;;;;;;25.08;15.50;;;9.30;99.90;;;;;;4991508;28;20036;-76
2023/12/13 08:19:23;;;;;;;40.72;19.00;;;9.30;99.90;;;;;;4992921;28;20026;-76
2023/12/13 08:21:49;;;;;;;30.40;18.70;;;9.30;99.90;;;;;;4993693;28;20491;-77
2023/12/13 08:24:16;;;;;;;32.55;19.17;;;9.30;99.90;;;;;;5002003;28;20042;-79
2023/12/13 08:26:42;;;;;;;30.75;18.35;;;9.30;99.90;;;;;;4997631;28;20111;-78
2023/12/13 08:29:07;;;;;;;24.08;15.70;;;9.40;99.90;;;;;;4999779;28;20025;-79
2023/12/13 08:31:34;;;;;;;17.42;9.93;;;9.40;99.90;;;;;;5004174;28;20032;-76
2023/12/13 08:34:00;;;;;;;18.00;8.98;;;9.40;99.90;;;;;;4992512;28;20358;-76
2023/12/13 08:36:27;;;;;;;12.10;6.85;;;9.40;99.90;;;;;;4991755;28;20032;-76
2023/12/13 08:38:53;;;;;;;14.20;7.47;;;9.40;99.90;;;;;;4991260;28;20092;-76
2023/12/13 08:41:18;;;;;;;14.73;7.38;;;9.30;99.90;;;;;;4992844;28;20414;-76
2023/12/13 08:43:44;;;;;;;15.02;8.30;;;9.30;99.90;;;;;;4994921;28;20042;-76
2023/12/13 08:46:10;;;;;;;13.80;7.75;;;9.30;99.90;;;;;;4989610;28;20030;-76
2023/12/13 08:48:36;;;;;;;14.57;8.05;;;9.20;99.90;;;;;;4990540;28;20478;-75
2023/12/13 08:51:13;;;;;;;17.25;10.35;;;9.30;99.90;;;;;;4990621;28;20038;-75
2023/12/13 08:53:48;;;;;;;22.23;11.07;;;9.40;99.90;;;;;;4973444;28;20030;-75
2023/12/13 08:56:15;;;;;;;21.95;12.93;;;9.40;99.90;;;;;;4991008;28;20073;-76
2023/12/13 08:58:41;;;;;;;26.27;16.15;;;9.40;99.90;;;;;;4992660;28;20023;-76
2023/12/13 09:01:07;;;;;;;26.75;15.77;;;9.40;99.90;;;;;;4987052;28;20030;-76
2023/12/13 09:03:32;;;;;;;38.63;19.95;;;9.40;99.90;;;;;;4992008;28;20038;-76
2023/12/13 09:05:58;;;;;;;29.77;18.55;;;9.40;99.90;;;;;;4992055;28;20500;-76
2023/12/13 09:08:24;;;;;;;29.23;18.58;;;9.50;99.90;;;;;;4988951;28;20026;-76
2023/12/13 09:10:49;;;;;;;29.65;18.52;;;9.50;99.90;;;;;;4987325;28;20042;-76
2023/12/13 09:13:15;;;;;;;27.55;16.25;;;9.50;99.90;;;;;;4975009;28;20032;-76
2023/12/13 09:15:42;;;;;;;55.25;19.98;;;9.50;99.90;;;;;;4994069;28;20026;-76
2023/12/13 09:18:08;;;;;;;28.17;17.52;;;9.60;99.90;;;;;;4988967;28;20096;-76
2023/12/13 09:20:34;;;;;;;24.48;14.25;;;9.60;99.90;;;;;;4990906;28;20101;-76
2023/12/13 09:22:59;;;;;;;23.10;14.73;;;9.70;99.90;;;;;;4991216;28;20057;-76
2023/12/13 09:25:25;;;;;;;21.13;12.23;;;9.70;99.90;;;;;;4975746;28;20035;-75
2023/12/13 09:27:51;;;;;;;20.48;11.38;;;9.70;99.90;;;;;;4996271;28;20037;-76
2023/12/13 09:30:16;;;;;;;20.17;11.05;;;9.80;99.90;;;;;;4990641;28;20475;-76
2023/12/13 09:32:43;;;;;;;21.50;11.15;;;9.80;99.90;;;;;;4988095;28;20061;-75
2023/12/13 09:35:09;;;;;;;18.38;10.25;;;9.90;99.90;;;;;;4994435;28;20046;-75
2023/12/13 09:37:35;;;;;;;17.50;7.50;;;10.00;99.90;;;;;;5004629;28;20026;-75
2023/12/13 09:40:01;;;;;;;15.70;6.88;;;10.10;99.90;;;;;;4998084;28;20096;-75
2023/12/13 09:42:27;;;;;;;11.77;5.93;;;10.10;99.90;;;;;;4997303;28;20434;-76
2023/12/13 09:44:52;;;;;;;13.38;6.05;;;10.10;99.90;;;;;;4999009;28;20030;-75
2023/12/13 09:47:21;;;;;;;12.20;4.88;;;10.10;99.90;;;;;;4995533;28;20088;-78
2023/12/13 09:49:48;;;;;;;10.82;5.57;;;10.20;99.90;;;;;;4995247;28;20026;-75
2023/12/13 09:52:17;;;;;;;9.50;4.43;;;10.20;99.90;;;;;;4995448;28;20485;-76
2023/12/13 09:54:44;;;;;;;8.93;4.60;;;10.20;99.90;;;;;;4994010;28;20053;-76
2023/12/13 09:57:10;;;;;;;9.90;3.80;;;10.30;99.90;;;;;;4995708;28;20037;-76
2023/12/13 09:59:38;;;;;;;6.60;3.65;;;10.20;99.90;;;;;;4994015;28;20117;-76
2023/12/13 10:02:15;;;;;;;9.65;3.97;;;10.30;99.90;;;;;;5005497;28;20121;-76
2023/12/13 10:04:42;;;;;;;9.93;3.65;;;10.30;99.90;;;;;;4995841;28;20037;-76
2023/12/13 10:07:07;;;;;;;10.40;4.93;;;10.30;99.90;;;;;;5002232;28;20029;-76
2023/12/13 10:09:34;;;;;;;7.90;3.58;;;10.30;99.90;;;;;;4992826;28;20030;-76
2023/12/13 10:12:00;;;;;;;7.28;3.42;;;10.40;99.90;;;;;;4996363;28;20466;-76
2023/12/13 10:14:26;;;;;;;3.70;2.63;;;10.30;99.90;;;;;;5007643;28;20393;-76
2023/12/13 10:16:53;;;;;;;7.50;2.97;;;10.40;99.90;;;;;;4994658;28;20042;-76
2023/12/13 10:19:18;;;;;;;4.45;2.72;;;10.40;99.90;;;;;;4989065;28;20050;-76
2023/12/13 10:21:48;;;;;;;5.72;3.15;;;10.30;99.90;;;;;;4995205;28;20031;-77
2023/12/13 10:24:15;;;;;;;5.15;3.00;;;10.40;99.90;;;;;;5005229;28;20030;-76
2023/12/13 10:26:41;;;;;;;5.18;3.80;;;10.40;99.90;;;;;;4994397;28;20057;-76
2023/12/13 10:29:07;;;;;;;6.43;4.20;;;10.40;99.90;;;;;;4993212;28;20479;-76
2023/12/13 10:31:33;;;;;;;10.02;5.55;;;10.40;99.90;;;;;;4994356;28;20068;-76
2023/12/13 10:33:59;;;;;;;11.25;5.50;;;10.40;99.90;;;;;;4995023;28;20109;-76
2023/12/13 10:36:26;;;;;;;12.00;5.95;;;10.50;99.90;;;;;;4978079;28;20605;-76
2023/12/13 10:38:53;;;;;;;26.42;12.85;;;10.50;99.90;;;;;;4995573;28;20058;-76
2023/12/13 10:41:27;;;;;;;11.82;5.53;;;10.50;99.90;;;;;;4995482;28;20068;-76
2023/12/13 10:43:57;;;;;;;14.77;7.45;;;10.50;99.90;;;;;;4993855;28;20180;-76
2023/12/13 10:46:26;;;;;;;19.27;9.68;;;10.60;99.90;;;;;;5000855;28;20045;-76
2023/12/13 10:48:52;;;;;;;21.77;10.15;;;10.60;99.90;;;;;;5000165;28;20037;-76
2023/12/13 10:51:19;;;;;;;19.58;10.27;;;10.70;99.90;;;;;;5001227;28;20536;-76
2023/12/13 10:53:46;;;;;;;20.48;10.88;;;10.80;99.90;;;;;;5002076;28;20019;-76
2023/12/13 10:56:13;;;;;;;21.70;11.80;;;10.90;99.90;;;;;;4993375;28;20033;-76
2023/12/13 10:58:39;;;;;;;19.98;10.80;;;11.00;99.90;;;;;;5000044;28;20111;-76
2023/12/13 11:01:07;;;;;;;16.17;8.98;;;11.10;99.90;;;;;;4993843;28;20070;-78
2023/12/13 11:03:58;;;;;;;13.68;6.97;;;11.20;99.90;;;;;;4975621;28;20023;-76
2023/12/13 11:06:26;;;;;;;13.90;7.00;;;11.30;99.90;;;;;;4986695;28;20026;-76
2023/12/13 11:08:52;;;;;;;13.27;7.32;;;11.40;99.90;;;;;;4990077;28;20038;-76
2023/12/13 11:11:18;;;;;;;13.88;7.38;;;11.60;99.90;;;;;;4989854;28;20044;-76
2023/12/13 11:13:52;;;;;;;14.40;7.95;;;11.80;99.90;;;;;;4993643;28;20157;-76
2023/12/13 11:16:22;;;;;;;29.98;16.98;;;12.00;99.90;;;;;;4994298;28;20097;-76
2023/12/13 11:18:52;;;;;;;20.88;12.88;;;12.10;99.90;;;;;;4993617;28;20157;-76
2023/12/13 11:21:30;;;;;;;25.98;15.05;;;12.30;99.90;;;;;;4992852;28;20131;-76
2023/12/13 11:23:58;;;;;;;23.38;14.10;;;12.40;99.90;;;;;;4994284;28;20173;-76
2023/12/13 11:26:27;;;;;;;29.70;19.27;;;12.40;99.90;;;;;;4991123;28;20029;-76
2023/12/13 11:28:54;;;;;;;32.88;20.20;;;12.40;99.90;;;;;;4982034;28;20034;-78
2023/12/13 11:31:24;;;;;;;31.63;20.48;;;12.40;99.90;;;;;;4993893;28;20036;-77
2023/12/13 11:33:58;;;;;;;31.23;20.92;;;12.30;99.90;;;;;;4992800;28;20114;-77
2023/12/13 11:36:25;;;;;;;36.50;21.67;;;12.30;99.90;;;;;;4994014;28;20018;-77
2023/12/13 11:38:53;;;;;;;32.85;21.33;;;12.30;99.90;;;;;;4987428;28;20037;-77
2023/12/13 11:41:19;;;;;;;34.10;22.83;;;12.20;99.90;;;;;;4993369;28;20027;-77
2023/12/13 11:43:45;;;;;;;32.88;21.42;;;12.20;99.90;;;;;;4989901;28;20038;-78
2023/12/13 11:46:12;;;;;;;33.88;21.80;;;12.20;99.90;;;;;;4991239;28;20383;-77
2023/12/13 11:48:38;;;;;;;36.38;23.42;;;12.10;99.90;;;;;;4987021;28;20109;-78
2023/12/13 11:51:04;;;;;;;34.67;23.25;;;12.10;99.90;;;;;;4992663;28;20086;-78
2023/12/13 11:53:29;;;;;;;38.35;25.48;;;12.10;99.90;;;;;;4994661;28;20033;-79
2023/12/13 11:55:56;;;;;;;39.33;25.92;;;12.10;99.90;;;;;;4990082;28;20070;-77
2023/12/13 11:58:22;;;;;;;34.05;24.13;;;12.10;99.90;;;;;;4972394;28;20498;-77
2023/12/13 12:00:47;;;;;;;32.50;22.27;;;12.00;99.90;;;;;;4992760;28;20023;-77
2023/12/13 12:03:13;;;;;;;33.97;23.52;;;12.00;99.90;;;;;;4985352;28;20042;-77
2023/12/13 12:05:41;;;;;;;33.42;22.88;;;11.90;99.90;;;;;;4987882;28;20026;-77
2023/12/13 12:08:07;;;;;;;31.52;20.98;;;11.80;99.90;;;;;;4986991;28;20760;-77
2023/12/13 12:10:34;;;;;;;29.80;20.42;;;11.80;99.90;;;;;;4990911;28;20026;-78
2023/12/13 12:13:01;;;;;;;28.05;18.73;;;11.70;99.90;;;;;;4989327;28;20030;-77
2023/12/13 12:15:27;;;;;;;30.60;18.83;;;11.70;99.90;;;;;;4991237;28;20019;-77
2023/12/13 12:17:54;;;;;;;30.35;19.10;;;11.70;99.90;;;;;;4988754;28;20093;-78
2023/12/13 12:20:21;;;;;;;26.95;18.05;;;11.60;99.90;;;;;;4987925;28;20101;-78
2023/12/13 12:22:47;;;;;;;30.80;19.85;;;11.60;99.90;;;;;;4991910;28;20118;-77
2023/12/13 12:25:13;;;;;;;31.40;21.05;;;11.60;99.90;;;;;;4986719;28;20100;-79
2023/12/13 12:27:46;;;;;;;31.63;21.10;;;11.60;99.90;;;;;;4992507;28;20394;-77
2023/12/13 12:30:12;;;;;;;34.95;22.55;;;11.60;99.90;;;;;;4987486;28;20449;-77